createdAt,value
2018-06-18T00:00:17.955Z,1013.37
2018-06-18T00:01:17.950Z,1013.36
2018-06-18T00:02:17.943Z,1013.38
2018-06-18T00:03:17.924Z,1013.42
2018-06-18T00:04:17.912Z,1013.46
2018-06-18T00:05:17.899Z,1013.51
2018-06-18T00:06:17.887Z,1013.55
2018-06-18T00:07:17.867Z,1013.58
2018-06-18T00:08:17.854Z,1013.58
2018-06-18T00:09:17.845Z,1013.57
2018-06-18T00:10:17.834Z,1013.60
2018-06-18T00:11:17.818Z,1013.58
2018-06-18T00:12:17.953Z,1013.58
2018-06-18T00:13:17.787Z,1013.57
2018-06-18T00:14:17.780Z,1013.62
2018-06-18T00:15:17.765Z,1013.66
2018-06-18T00:16:17.751Z,1013.67
2018-06-18T00:17:17.732Z,1013.66
2018-06-18T00:18:17.726Z,1013.68
2018-06-18T00:19:17.707Z,1013.67
2018-06-18T00:20:17.700Z,1013.65
2018-06-18T00:21:17.685Z,1013.69
2018-06-18T00:22:17.719Z,1013.70
2018-06-18T00:23:17.658Z,1013.68
2018-06-18T00:24:17.669Z,1013.71
2018-06-18T00:25:17.630Z,1013.68
2018-06-18T00:26:17.611Z,1013.65
2018-06-18T00:27:17.598Z,1013.68
2018-06-18T00:28:17.592Z,1013.65
2018-06-18T00:29:17.572Z,1013.63
2018-06-18T00:30:17.568Z,1013.63
2018-06-18T00:31:17.548Z,1013.60
2018-06-18T00:32:17.530Z,1013.61
2018-06-18T00:33:17.522Z,1013.59
2018-06-18T00:34:17.510Z,1013.60
2018-06-18T00:35:17.499Z,1013.56
2018-06-18T00:36:17.481Z,1013.58
2018-06-18T00:37:17.471Z,1013.56
2018-06-18T00:38:17.458Z,1013.57
2018-06-18T00:39:17.443Z,1013.54
2018-06-18T00:40:17.429Z,1013.53
2018-06-18T00:41:17.410Z,1013.56
2018-06-18T00:42:17.410Z,1013.59
2018-06-18T00:43:17.394Z,1013.60
2018-06-18T00:44:17.378Z,1013.61
2018-06-18T00:45:17.363Z,1013.61
2018-06-18T00:46:17.347Z,1013.60
2018-06-18T00:47:17.343Z,1013.60
2018-06-18T00:48:17.321Z,1013.50
2018-06-18T00:49:17.308Z,1013.46
2018-06-18T00:50:17.299Z,1013.41
2018-06-18T00:51:17.284Z,1013.37
2018-06-18T00:52:17.265Z,1013.32
2018-06-18T00:53:17.261Z,1013.31
2018-06-18T00:54:17.245Z,1013.34
2018-06-18T00:55:17.226Z,1013.30
2018-06-18T00:56:17.212Z,1013.31
2018-06-18T00:57:17.207Z,1013.30
2018-06-18T00:58:17.190Z,1013.26
2018-06-18T00:59:17.174Z,1013.22
2018-06-18T01:00:17.162Z,1013.19
2018-06-18T01:01:17.149Z,1013.15
2018-06-18T01:02:17.136Z,1013.15
2018-06-18T01:03:17.123Z,1013.11
2018-06-18T01:04:17.107Z,1013.12
2018-06-18T01:05:17.089Z,1013.07
2018-06-18T01:06:17.090Z,1013.04
2018-06-18T01:07:17.071Z,1013.03
2018-06-18T01:08:17.053Z,1013.04
2018-06-18T01:09:17.042Z,1013.01
2018-06-18T01:10:17.029Z,1013.01
2018-06-18T01:11:17.023Z,1013.01
2018-06-18T01:12:17.011Z,1013.04
2018-06-18T01:13:16.991Z,1013.00
2018-06-18T01:14:16.984Z,1013.02
2018-06-18T01:15:16.955Z,1013.07
2018-06-18T01:16:16.949Z,1013.04
2018-06-18T01:17:16.933Z,1013.07
2018-06-18T01:18:16.917Z,1013.02
2018-06-18T01:19:16.907Z,1013.02
2018-06-18T01:20:16.896Z,1012.98
2018-06-18T01:21:16.889Z,1012.99
2018-06-18T01:22:16.864Z,1012.97
2018-06-18T01:23:16.855Z,1012.99
2018-06-18T01:24:16.841Z,1012.93
2018-06-18T01:25:16.835Z,1012.91
2018-06-18T01:26:16.815Z,1012.90
2018-06-18T01:27:16.803Z,1012.91
2018-06-18T01:28:16.783Z,1012.93
2018-06-18T01:29:16.774Z,1012.96
2018-06-18T01:30:16.761Z,1012.97
2018-06-18T01:31:16.771Z,1012.98
2018-06-18T01:32:16.742Z,1013.00
2018-06-18T01:33:16.728Z,1012.99
2018-06-18T01:34:16.708Z,1012.97
2018-06-18T01:35:16.786Z,1012.97
2018-06-18T01:36:16.681Z,1012.98
2018-06-18T01:37:16.669Z,1013.02
2018-06-18T01:38:16.652Z,1012.98
2018-06-18T01:39:16.649Z,1013.04
2018-06-18T01:40:16.627Z,1013.06
2018-06-18T01:41:16.616Z,1013.04
2018-06-18T01:42:16.602Z,1013.03
2018-06-18T01:43:16.786Z,1013.05
2018-06-18T01:44:16.572Z,1013.07
2018-06-18T01:45:16.662Z,1013.11
2018-06-18T01:46:16.549Z,1013.13
2018-06-18T01:47:16.546Z,1013.15
2018-06-18T01:48:16.521Z,1013.12
2018-06-18T01:49:16.501Z,1013.14
2018-06-18T01:50:16.497Z,1013.10
2018-06-18T01:51:16.481Z,1013.08
2018-06-18T01:52:16.467Z,1013.05
2018-06-18T01:53:16.600Z,1013.05
2018-06-18T01:54:16.441Z,1013.07
2018-06-18T01:55:16.427Z,1013.02
2018-06-18T01:56:16.410Z,1013.02
2018-06-18T01:57:16.443Z,1012.96
2018-06-18T01:58:16.376Z,1012.93
2018-06-18T01:59:16.372Z,1012.90
2018-06-18T02:00:16.358Z,1012.91
2018-06-18T02:01:16.341Z,1012.87
2018-06-18T02:02:16.331Z,1012.90
2018-06-18T02:03:16.321Z,1012.88
2018-06-18T02:04:16.299Z,1012.91
2018-06-18T02:05:16.281Z,1012.90
2018-06-18T02:06:16.267Z,1012.91
2018-06-18T02:07:16.257Z,1012.93
2018-06-18T02:08:16.241Z,1012.96
2018-06-18T02:09:16.229Z,1012.96
2018-06-18T02:10:16.226Z,1012.95
2018-06-18T02:11:16.196Z,1012.92
2018-06-18T02:12:16.187Z,1012.84
2018-06-18T02:13:16.174Z,1012.87
2018-06-18T02:14:16.157Z,1012.80
2018-06-18T02:15:16.142Z,1012.79
2018-06-18T02:16:16.181Z,1012.81
2018-06-18T02:17:16.111Z,1012.82
2018-06-18T02:18:16.112Z,1012.84
2018-06-18T02:19:16.091Z,1012.89
2018-06-18T02:20:16.079Z,1012.87
2018-06-18T02:21:16.055Z,1012.87
2018-06-18T02:22:16.052Z,1012.90
2018-06-18T02:23:16.035Z,1012.85
2018-06-18T02:24:16.021Z,1012.85
2018-06-18T02:25:16.008Z,1012.87
2018-06-18T02:26:15.987Z,1012.81
2018-06-18T02:27:15.975Z,1012.80
2018-06-18T02:28:15.953Z,1012.77
2018-06-18T02:29:15.946Z,1012.78
2018-06-18T02:30:15.938Z,1012.78
2018-06-18T02:31:15.912Z,1012.78
2018-06-18T02:32:15.905Z,1012.79
2018-06-18T02:33:15.889Z,1012.79
2018-06-18T02:34:15.882Z,1012.79
2018-06-18T02:35:15.859Z,1012.76
2018-06-18T02:36:15.847Z,1012.77
2018-06-18T02:37:15.824Z,1012.73
2018-06-18T02:38:15.819Z,1012.73
2018-06-18T02:39:15.800Z,1012.71
2018-06-18T02:40:15.793Z,1012.70
2018-06-18T02:41:15.779Z,1012.72
2018-06-18T02:42:15.757Z,1012.75
2018-06-18T02:43:15.748Z,1012.78
2018-06-18T02:44:15.728Z,1012.78
2018-06-18T02:45:15.715Z,1012.84
2018-06-18T02:46:15.704Z,1012.87
2018-06-18T02:47:15.693Z,1012.82
2018-06-18T02:48:15.666Z,1012.85
2018-06-18T02:49:15.670Z,1012.86
2018-06-18T02:50:15.653Z,1012.88
2018-06-18T02:51:15.628Z,1012.87
2018-06-18T02:52:15.615Z,1012.89
2018-06-18T02:53:15.602Z,1012.91
2018-06-18T02:54:15.587Z,1012.91
2018-06-18T02:55:15.568Z,1012.91
2018-06-18T02:56:15.556Z,1012.92
2018-06-18T02:57:15.545Z,1012.91
2018-06-18T02:58:15.532Z,1012.88
2018-06-18T02:59:15.520Z,1012.90
2018-06-18T03:00:15.501Z,1012.90
2018-06-18T03:01:15.488Z,1012.87
2018-06-18T03:02:15.472Z,1012.84
2018-06-18T03:03:15.462Z,1012.84
2018-06-18T03:04:15.446Z,1012.86
2018-06-18T03:05:15.433Z,1012.88
2018-06-18T03:06:15.411Z,1012.88
2018-06-18T03:07:15.398Z,1012.88
2018-06-18T03:08:15.384Z,1012.91
2018-06-18T03:09:15.372Z,1012.91
2018-06-18T03:10:15.350Z,1012.96
2018-06-18T03:11:15.347Z,1012.93
2018-06-18T03:12:15.376Z,1012.97
2018-06-18T03:13:15.317Z,1012.96
2018-06-18T03:14:15.296Z,1013.00
2018-06-18T03:15:15.282Z,1013.00
2018-06-18T03:16:15.273Z,1013.04
2018-06-18T03:17:15.299Z,1013.01
2018-06-18T03:18:15.239Z,1013.00
2018-06-18T03:19:15.228Z,1012.98
2018-06-18T03:20:15.254Z,1012.99
2018-06-18T03:21:15.200Z,1013.01
2018-06-18T03:22:15.283Z,1013.01
2018-06-18T03:23:15.172Z,1013.03
2018-06-18T03:24:15.181Z,1013.02
2018-06-18T03:25:15.142Z,1013.02
2018-06-18T03:26:15.158Z,1013.07
2018-06-18T03:27:15.110Z,1013.08
2018-06-18T03:28:15.104Z,1013.06
2018-06-18T03:29:15.090Z,1013.05
2018-06-18T03:30:15.068Z,1013.08
2018-06-18T03:31:15.057Z,1013.08
2018-06-18T03:32:15.142Z,1013.08
2018-06-18T03:33:15.029Z,1013.08
2018-06-18T03:34:15.105Z,1013.08
2018-06-18T03:35:15.001Z,1013.11
2018-06-18T03:36:15.028Z,1013.14
2018-06-18T03:37:15.041Z,1013.16
2018-06-18T03:38:15.012Z,1013.14
2018-06-18T03:39:14.938Z,1013.12
2018-06-18T03:40:14.932Z,1013.13
2018-06-18T03:41:14.915Z,1013.15
2018-06-18T03:42:15.002Z,1013.18
2018-06-18T03:43:14.887Z,1013.15
2018-06-18T03:44:14.872Z,1013.16
2018-06-18T03:45:14.859Z,1013.18
2018-06-18T03:46:14.841Z,1013.17
2018-06-18T03:47:14.827Z,1013.13
2018-06-18T03:48:14.819Z,1013.08
2018-06-18T03:49:14.797Z,1013.13
2018-06-18T03:50:14.792Z,1013.09
2018-06-18T03:51:14.775Z,1013.13
2018-06-18T03:52:14.762Z,1013.14
2018-06-18T03:53:14.746Z,1013.17
2018-06-18T03:54:14.729Z,1013.11
2018-06-18T03:55:14.727Z,1013.13
2018-06-18T03:56:14.716Z,1013.14
2018-06-18T03:57:14.687Z,1013.11
2018-06-18T03:58:14.681Z,1013.14
2018-06-18T03:59:14.660Z,1013.10
2018-06-18T04:00:14.646Z,1013.13
2018-06-18T04:01:14.627Z,1013.14
2018-06-18T04:02:14.617Z,1013.15
2018-06-18T04:03:14.609Z,1013.14
2018-06-18T04:04:14.590Z,1013.12
2018-06-18T04:05:14.602Z,1013.08
2018-06-18T04:06:14.557Z,1013.08
2018-06-18T04:07:14.550Z,1013.06
2018-06-18T04:08:14.537Z,1013.10
2018-06-18T04:09:14.521Z,1013.10
2018-06-18T04:10:14.509Z,1013.12
2018-06-18T04:11:14.495Z,1013.18
2018-06-18T04:12:14.544Z,1013.17
2018-06-18T04:13:14.475Z,1013.16
2018-06-18T04:14:14.451Z,1013.18
2018-06-18T04:15:14.443Z,1013.19
2018-06-18T04:16:14.424Z,1013.14
2018-06-18T04:17:14.406Z,1013.17
2018-06-18T04:18:14.404Z,1013.16
2018-06-18T04:19:14.383Z,1013.17
2018-06-18T04:20:14.366Z,1013.21
2018-06-18T04:21:14.356Z,1013.14
2018-06-18T04:22:14.337Z,1013.19
2018-06-18T04:23:14.327Z,1013.18
2018-06-18T04:24:14.319Z,1013.19
2018-06-18T04:25:14.302Z,1013.19
2018-06-18T04:26:14.289Z,1013.18
2018-06-18T04:27:14.273Z,1013.15
2018-06-18T04:28:14.261Z,1013.16
2018-06-18T04:29:14.237Z,1013.13
2018-06-18T04:30:14.224Z,1013.10
2018-06-18T04:31:14.220Z,1013.10
2018-06-18T04:32:14.206Z,1013.10
2018-06-18T04:33:14.199Z,1013.13
2018-06-18T04:34:14.177Z,1013.06
2018-06-18T04:35:14.158Z,1013.09
2018-06-18T04:36:14.153Z,1013.10
2018-06-18T04:37:14.131Z,1013.08
2018-06-18T04:38:14.123Z,1013.06
2018-06-18T04:39:14.109Z,1013.11
2018-06-18T04:40:14.092Z,1013.12
2018-06-18T04:41:14.083Z,1013.09
2018-06-18T04:42:14.067Z,1013.12
2018-06-18T04:43:14.053Z,1013.11
2018-06-18T04:44:14.038Z,1013.11
2018-06-18T04:45:14.029Z,1013.05
2018-06-18T04:46:14.012Z,1013.07
2018-06-18T04:47:14.005Z,1013.03
2018-06-18T04:48:13.980Z,1013.07
2018-06-18T04:49:13.970Z,1013.07
2018-06-18T04:50:13.955Z,1013.05
2018-06-18T04:51:13.954Z,1013.01
2018-06-18T04:52:13.928Z,1013.08
2018-06-18T04:53:13.916Z,1013.10
2018-06-18T04:54:13.899Z,1013.10
2018-06-18T04:55:13.890Z,1013.13
2018-06-18T04:56:13.881Z,1013.09
2018-06-18T04:57:13.859Z,1013.10
2018-06-18T04:58:13.851Z,1013.09
2018-06-18T04:59:13.829Z,1013.07
2018-06-18T05:00:13.820Z,1013.04
2018-06-18T05:01:13.807Z,1013.07
2018-06-18T05:02:13.790Z,1013.09
2018-06-18T05:03:13.833Z,1013.05
2018-06-18T05:04:13.779Z,1013.11
2018-06-18T05:05:13.762Z,1013.12
2018-06-18T05:06:13.743Z,1013.16
2018-06-18T05:07:13.726Z,1013.13
2018-06-18T05:08:13.710Z,1013.17
2018-06-18T05:09:13.747Z,1013.14
2018-06-18T05:10:13.694Z,1013.15
2018-06-18T05:11:13.679Z,1013.21
2018-06-18T05:12:13.662Z,1013.24
2018-06-18T05:13:13.650Z,1013.17
2018-06-18T05:14:13.642Z,1013.19
2018-06-18T05:15:13.617Z,1013.20
2018-06-18T05:16:13.605Z,1013.17
2018-06-18T05:17:13.594Z,1013.26
2018-06-18T05:18:13.584Z,1013.25
2018-06-18T05:19:13.618Z,1013.25
2018-06-18T05:20:13.558Z,1013.29
2018-06-18T05:21:13.544Z,1013.27
2018-06-18T05:22:13.532Z,1013.22
2018-06-18T05:23:13.509Z,1013.23
2018-06-18T05:24:13.503Z,1013.20
2018-06-18T05:25:13.483Z,1013.26
2018-06-18T05:26:13.467Z,1013.25
2018-06-18T05:27:13.457Z,1013.20
2018-06-18T05:28:13.439Z,1013.22
2018-06-18T05:29:13.429Z,1013.19
2018-06-18T05:30:13.419Z,1013.24
2018-06-18T05:31:13.403Z,1013.14
2018-06-18T05:32:13.388Z,1013.19
2018-06-18T05:33:13.373Z,1013.17
2018-06-18T05:34:13.362Z,1013.18
2018-06-18T05:35:13.345Z,1013.15
2018-06-18T05:36:13.349Z,1013.14
2018-06-18T05:37:13.323Z,1013.13
2018-06-18T05:38:13.311Z,1013.17
2018-06-18T05:39:13.299Z,1013.08
2018-06-18T05:40:13.285Z,1013.12
2018-06-18T05:41:13.267Z,1013.14
2018-06-18T05:42:13.254Z,1013.12
2018-06-18T05:43:13.238Z,1013.14
2018-06-18T05:44:13.232Z,1013.12
2018-06-18T05:45:13.223Z,1013.12
2018-06-18T05:46:13.203Z,1013.13
2018-06-18T05:47:13.194Z,1013.12
2018-06-18T05:48:13.175Z,1013.09
2018-06-18T05:49:13.157Z,1013.12
2018-06-18T05:50:13.152Z,1013.10
2018-06-18T05:51:13.133Z,1013.08
2018-06-18T05:52:13.120Z,1013.15
2018-06-18T05:53:13.109Z,1013.15
2018-06-18T05:54:13.098Z,1013.17
2018-06-18T05:55:13.092Z,1013.20
2018-06-18T05:56:13.073Z,1013.20
2018-06-18T05:57:13.059Z,1013.16
2018-06-18T05:58:13.044Z,1013.17
2018-06-18T05:59:13.027Z,1013.18
2018-06-18T06:00:13.012Z,1013.23
2018-06-18T06:01:13.002Z,1013.21
2018-06-18T06:02:12.988Z,1013.21
2018-06-18T06:03:12.979Z,1013.25
2018-06-18T06:04:12.957Z,1013.16
2018-06-18T06:05:12.948Z,1013.27
2018-06-18T06:06:12.941Z,1013.28
2018-06-18T06:07:12.922Z,1013.23
2018-06-18T06:08:12.909Z,1013.28
2018-06-18T06:09:12.895Z,1013.27
2018-06-18T06:10:12.877Z,1013.25
2018-06-18T06:11:12.864Z,1013.37
2018-06-18T06:12:12.849Z,1013.32
2018-06-18T06:13:12.843Z,1013.35
2018-06-18T06:14:12.833Z,1013.32
2018-06-18T06:15:12.831Z,1013.33
2018-06-18T06:16:12.798Z,1013.24
2018-06-18T06:17:12.792Z,1013.24
2018-06-18T06:18:12.776Z,1013.23
2018-06-18T06:19:12.759Z,1013.32
2018-06-18T06:20:12.750Z,1013.22
2018-06-18T06:21:12.739Z,1013.22
2018-06-18T06:22:12.724Z,1013.23
2018-06-18T06:23:12.706Z,1013.26
2018-06-18T06:24:12.692Z,1013.17
2018-06-18T06:25:12.692Z,1013.21
2018-06-18T06:26:12.670Z,1013.24
2018-06-18T06:27:12.658Z,1013.21
2018-06-18T06:28:12.632Z,1013.21
2018-06-18T06:29:12.625Z,1013.30
2018-06-18T06:30:12.612Z,1013.29
2018-06-18T06:31:12.603Z,1013.30
2018-06-18T06:32:12.577Z,1013.32
2018-06-18T06:33:12.571Z,1013.29
2018-06-18T06:34:12.594Z,1013.31
2018-06-18T06:35:12.547Z,1013.26
2018-06-18T06:36:12.533Z,1013.23
2018-06-18T06:37:12.520Z,1013.24
2018-06-18T06:38:12.504Z,1013.27
2018-06-18T06:39:12.491Z,1013.26
2018-06-18T06:40:12.472Z,1013.28
2018-06-18T06:41:12.469Z,1013.28
2018-06-18T06:42:12.450Z,1013.29
2018-06-18T06:43:12.437Z,1013.26
2018-06-18T06:44:12.472Z,1013.33
2018-06-18T06:45:12.412Z,1013.34
2018-06-18T06:46:12.399Z,1013.33
2018-06-18T06:47:12.383Z,1013.34
2018-06-18T06:48:12.367Z,1013.36
2018-06-18T06:49:12.357Z,1013.35
2018-06-18T06:50:12.339Z,1013.35
2018-06-18T06:51:12.331Z,1013.35
2018-06-18T06:52:12.319Z,1013.36
2018-06-18T06:53:12.301Z,1013.36
2018-06-18T06:54:12.292Z,1013.39
2018-06-18T06:55:12.276Z,1013.43
2018-06-18T06:56:12.260Z,1013.38
2018-06-18T06:57:12.251Z,1013.34
2018-06-18T06:58:12.241Z,1013.37
2018-06-18T06:59:12.228Z,1013.39
2018-06-18T07:00:12.212Z,1013.40
2018-06-18T07:01:12.228Z,1013.41
2018-06-18T07:02:12.201Z,1013.40
2018-06-18T07:03:12.172Z,1013.38
2018-06-18T07:04:12.165Z,1013.46
2018-06-18T07:05:12.167Z,1013.46
2018-06-18T07:06:12.132Z,1013.45
2018-06-18T07:07:12.122Z,1013.46
2018-06-18T07:08:12.116Z,1013.49
2018-06-18T07:09:12.097Z,1013.46
2018-06-18T07:10:12.088Z,1013.42
2018-06-18T07:11:12.074Z,1013.42
2018-06-18T07:12:12.064Z,1013.44
2018-06-18T07:13:12.037Z,1013.45
2018-06-18T07:14:12.038Z,1013.45
2018-06-18T07:15:12.022Z,1013.54
2018-06-18T07:16:12.013Z,1013.50
2018-06-18T07:17:11.993Z,1013.51
2018-06-18T07:18:11.980Z,1013.50
2018-06-18T07:19:11.964Z,1013.49
2018-06-18T07:20:11.958Z,1013.47
2018-06-18T07:21:11.937Z,1013.47
2018-06-18T07:22:11.941Z,1013.48
2018-06-18T07:23:11.919Z,1013.49
2018-06-18T07:24:11.902Z,1013.53
2018-06-18T07:25:11.890Z,1013.52
2018-06-18T07:26:11.881Z,1013.41
2018-06-18T07:27:11.863Z,1013.37
2018-06-18T07:28:11.869Z,1013.43
2018-06-18T07:29:11.837Z,1013.41
2018-06-18T07:30:11.874Z,1013.40
2018-06-18T07:31:11.871Z,1013.42
2018-06-18T07:32:11.798Z,1013.43
2018-06-18T07:33:11.880Z,1013.45
2018-06-18T07:34:11.775Z,1013.41
2018-06-18T07:35:11.865Z,1013.46
2018-06-18T07:36:11.759Z,1013.47
2018-06-18T07:37:11.752Z,1013.53
2018-06-18T07:38:11.723Z,1013.49
2018-06-18T07:39:11.823Z,1013.49
2018-06-18T07:40:11.701Z,1013.43
2018-06-18T07:41:11.692Z,1013.49
2018-06-18T07:42:11.700Z,1013.43
2018-06-18T07:43:11.674Z,1013.51
2018-06-18T07:44:11.658Z,1013.53
2018-06-18T07:45:11.645Z,1013.51
2018-06-18T07:46:11.627Z,1013.54
2018-06-18T07:47:11.623Z,1013.61
2018-06-18T07:48:11.597Z,1013.58
2018-06-18T07:49:11.587Z,1013.60
2018-06-18T07:50:11.578Z,1013.58
2018-06-18T07:51:11.581Z,1013.59
2018-06-18T07:52:11.557Z,1013.61
2018-06-18T07:53:11.543Z,1013.54
2018-06-18T07:54:11.533Z,1013.58
2018-06-18T07:55:11.520Z,1013.58
2018-06-18T07:56:11.508Z,1013.58
2018-06-18T07:57:11.499Z,1013.58
2018-06-18T07:58:11.489Z,1013.56
2018-06-18T07:59:11.473Z,1013.59
2018-06-18T08:00:11.463Z,1013.57
2018-06-18T08:01:11.454Z,1013.54
2018-06-18T08:02:11.443Z,1013.50
2018-06-18T08:03:11.424Z,1013.54
2018-06-18T08:04:11.406Z,1013.50
2018-06-18T08:05:11.393Z,1013.49
2018-06-18T08:06:11.389Z,1013.45
2018-06-18T08:07:11.383Z,1013.52
2018-06-18T08:08:11.367Z,1013.49
2018-06-18T08:09:11.354Z,1013.51
2018-06-18T08:10:11.340Z,1013.48
2018-06-18T08:11:11.329Z,1013.46
2018-06-18T08:12:11.317Z,1013.45
2018-06-18T08:13:11.303Z,1013.41
2018-06-18T08:14:11.296Z,1013.45
2018-06-18T08:15:11.284Z,1013.45
2018-06-18T08:16:11.272Z,1013.44
2018-06-18T08:17:11.260Z,1013.40
2018-06-18T08:18:11.239Z,1013.44
2018-06-18T08:19:11.301Z,1013.40
2018-06-18T08:20:11.222Z,1013.39
2018-06-18T08:21:11.207Z,1013.44
2018-06-18T08:22:11.200Z,1013.41
2018-06-18T08:23:11.194Z,1013.37
2018-06-18T08:24:11.169Z,1013.42
2018-06-18T08:25:11.159Z,1013.41
2018-06-18T08:26:11.146Z,1013.37
2018-06-18T08:27:11.136Z,1013.35
2018-06-18T08:28:11.123Z,1013.36
2018-06-18T08:29:11.114Z,1013.31
2018-06-18T08:30:11.105Z,1013.35
2018-06-18T08:31:11.091Z,1013.44
2018-06-18T08:32:11.080Z,1013.44
2018-06-18T08:33:11.058Z,1013.40
2018-06-18T08:34:11.051Z,1013.43
2018-06-18T08:35:11.043Z,1013.43
2018-06-18T08:36:11.034Z,1013.48
2018-06-18T08:37:11.014Z,1013.47
2018-06-18T08:38:11.013Z,1013.44
2018-06-18T08:39:10.994Z,1013.43
2018-06-18T08:40:10.978Z,1013.45
2018-06-18T08:41:10.972Z,1013.51
2018-06-18T08:42:10.956Z,1013.42
2018-06-18T08:43:10.953Z,1013.47
2018-06-18T08:44:10.953Z,1013.49
2018-06-18T08:45:10.917Z,1013.44
2018-06-18T08:46:10.913Z,1013.56
2018-06-18T08:47:10.905Z,1013.52
2018-06-18T08:48:10.892Z,1013.51
2018-06-18T08:49:10.879Z,1013.56
2018-06-18T08:50:10.871Z,1013.52
2018-06-18T08:51:10.853Z,1013.48
2018-06-18T08:52:10.850Z,1013.50
2018-06-18T08:53:10.827Z,1013.48
2018-06-18T08:54:10.921Z,1013.53
2018-06-18T08:55:10.807Z,1013.48
2018-06-18T08:56:10.852Z,1013.53
2018-06-18T08:57:10.793Z,1013.43
2018-06-18T08:58:10.780Z,1013.44
2018-06-18T08:59:10.763Z,1013.42
2018-06-18T09:00:10.753Z,1013.34
2018-06-18T09:01:10.742Z,1013.37
2018-06-18T09:02:10.727Z,1013.31
2018-06-18T09:03:10.764Z,1013.30
2018-06-18T09:04:10.712Z,1013.29
2018-06-18T09:05:10.702Z,1013.28
2018-06-18T09:06:10.699Z,1013.30
2018-06-18T09:07:10.678Z,1013.43
2018-06-18T09:08:10.674Z,1013.46
2018-06-18T09:09:10.648Z,1013.50
2018-06-18T09:10:10.641Z,1013.55
2018-06-18T09:11:10.639Z,1013.33
2018-06-18T09:12:10.633Z,1013.37
2018-06-18T09:13:10.627Z,1013.45
2018-06-18T09:14:10.610Z,1013.47
2018-06-18T09:15:10.605Z,1013.38
2018-06-18T09:16:10.597Z,1013.40
2018-06-18T09:17:10.581Z,1013.37
2018-06-18T09:18:10.580Z,1013.40
2018-06-18T09:19:10.559Z,1013.56
2018-06-18T09:20:10.546Z,1013.39
2018-06-18T09:21:10.537Z,1013.54
2018-06-18T09:22:10.533Z,1013.29
2018-06-18T09:23:10.520Z,1013.28
2018-06-18T09:24:10.515Z,1013.27
2018-06-18T09:25:10.500Z,1013.28
2018-06-18T09:26:10.489Z,1013.32
2018-06-18T09:27:10.483Z,1013.32
2018-06-18T09:28:10.483Z,1013.28
2018-06-18T09:29:10.462Z,1013.29
2018-06-18T09:30:10.456Z,1013.36
2018-06-18T09:31:10.447Z,1013.29
2018-06-18T09:32:10.532Z,1013.33
2018-06-18T09:33:10.429Z,1013.23
2018-06-18T09:34:10.414Z,1013.27
2018-06-18T09:35:10.412Z,1013.31
2018-06-18T09:36:10.397Z,1013.28
2018-06-18T09:37:10.380Z,1013.39
2018-06-18T09:38:10.371Z,1013.27
2018-06-18T09:39:10.369Z,1013.45
2018-06-18T09:40:10.364Z,1013.40
2018-06-18T09:41:10.348Z,1013.41
2018-06-18T09:42:10.329Z,1013.41
2018-06-18T09:43:10.319Z,1013.42
2018-06-18T09:44:10.306Z,1013.44
2018-06-18T09:45:10.299Z,1013.36
2018-06-18T09:46:10.290Z,1013.33
2018-06-18T09:47:10.322Z,1013.36
2018-06-18T09:48:10.350Z,1013.31
2018-06-18T09:49:10.261Z,1013.31
2018-06-18T09:50:10.252Z,1013.21
2018-06-18T09:51:10.233Z,1013.27
2018-06-18T09:52:10.233Z,1013.24
2018-06-18T09:53:10.222Z,1013.34
2018-06-18T09:54:10.207Z,1013.28
2018-06-18T09:55:10.204Z,1013.32
2018-06-18T09:56:10.188Z,1013.40
2018-06-18T09:57:10.179Z,1013.35
2018-06-18T09:58:10.169Z,1013.35
2018-06-18T09:59:10.154Z,1013.43
2018-06-18T10:00:10.150Z,1013.46
2018-06-18T10:01:10.134Z,1013.48
2018-06-18T10:02:10.124Z,1013.43
2018-06-18T10:03:10.115Z,1013.48
2018-06-18T10:04:10.112Z,1013.56
2018-06-18T10:05:10.101Z,1013.62
2018-06-18T10:06:10.094Z,1013.55
2018-06-18T10:07:10.068Z,1013.59
2018-06-18T10:08:10.078Z,1013.60
2018-06-18T10:09:10.053Z,1013.57
2018-06-18T10:10:10.046Z,1013.50
2018-06-18T10:11:10.031Z,1013.47
2018-06-18T10:12:10.024Z,1013.46
2018-06-18T10:13:10.014Z,1013.44
2018-06-18T10:14:10.001Z,1013.38
2018-06-18T10:15:09.988Z,1013.48
2018-06-18T10:16:09.977Z,1013.54
2018-06-18T10:17:09.972Z,1013.51
2018-06-18T10:18:09.955Z,1013.50
2018-06-18T10:19:09.953Z,1013.49
2018-06-18T10:20:09.936Z,1013.53
2018-06-18T10:21:09.925Z,1013.48
2018-06-18T10:22:09.918Z,1013.53
2018-06-18T10:23:09.907Z,1013.52
2018-06-18T10:24:09.932Z,1013.55
2018-06-18T10:25:09.880Z,1013.56
2018-06-18T10:26:09.874Z,1013.54
2018-06-18T10:27:09.864Z,1013.53
2018-06-18T10:28:09.851Z,1013.55
2018-06-18T10:29:09.842Z,1013.52
2018-06-18T10:30:09.842Z,1013.55
2018-06-18T10:31:09.820Z,1013.52
2018-06-18T10:32:09.807Z,1013.56
2018-06-18T10:33:09.796Z,1013.55
2018-06-18T10:34:09.883Z,1013.58
2018-06-18T10:35:09.784Z,1013.58
2018-06-18T10:36:09.877Z,1013.61
2018-06-18T10:37:09.756Z,1013.57
2018-06-18T10:38:09.847Z,1013.59
2018-06-18T10:39:09.737Z,1013.61
2018-06-18T10:40:09.823Z,1013.58
2018-06-18T10:41:09.711Z,1013.56
2018-06-18T10:42:09.808Z,1013.58
2018-06-18T10:43:09.686Z,1013.62
2018-06-18T10:44:09.699Z,1013.65
2018-06-18T10:45:09.671Z,1013.55
2018-06-18T10:46:09.670Z,1013.61
2018-06-18T10:47:09.648Z,1013.60
2018-06-18T10:48:09.687Z,1013.56
2018-06-18T10:49:09.632Z,1013.57
2018-06-18T10:50:09.621Z,1013.54
2018-06-18T10:51:09.607Z,1013.54
2018-06-18T10:52:09.603Z,1013.58
2018-06-18T10:53:09.584Z,1013.53
2018-06-18T10:54:09.581Z,1013.49
2018-06-18T10:55:09.573Z,1013.55
2018-06-18T10:56:09.568Z,1013.57
2018-06-18T10:57:09.555Z,1013.52
2018-06-18T10:58:09.543Z,1013.54
2018-06-18T10:59:09.526Z,1013.45
2018-06-18T11:00:09.512Z,1013.55
2018-06-18T11:01:09.508Z,1013.56
2018-06-18T11:02:09.497Z,1013.55
2018-06-18T11:03:09.492Z,1013.56
2018-06-18T11:04:09.485Z,1013.59
2018-06-18T11:05:09.472Z,1013.60
2018-06-18T11:06:09.455Z,1013.63
2018-06-18T11:07:09.452Z,1013.66
2018-06-18T11:08:09.431Z,1013.67
2018-06-18T11:09:09.420Z,1013.65
2018-06-18T11:10:09.409Z,1013.62
2018-06-18T11:11:09.398Z,1013.60
2018-06-18T11:12:09.410Z,1013.63
2018-06-18T11:13:09.381Z,1013.66
2018-06-18T11:14:09.373Z,1013.63
2018-06-18T11:15:09.371Z,1013.61
2018-06-18T11:16:09.481Z,1013.67
2018-06-18T11:17:09.549Z,1013.66
2018-06-18T11:18:09.333Z,1013.64
2018-06-18T11:19:09.319Z,1013.60
2018-06-18T11:20:09.298Z,1013.57
2018-06-18T11:21:09.297Z,1013.62
2018-06-18T11:22:09.284Z,1013.55
2018-06-18T11:23:09.279Z,1013.59
2018-06-18T11:24:09.259Z,1013.55
2018-06-18T11:25:09.318Z,1013.58
2018-06-18T11:26:09.242Z,1013.49
2018-06-18T11:27:09.354Z,1013.55
2018-06-18T11:28:09.254Z,1013.54
2018-06-18T11:29:09.208Z,1013.52
2018-06-18T11:30:09.196Z,1013.68
2018-06-18T11:31:09.194Z,1013.71
2018-06-18T11:32:09.198Z,1013.60
2018-06-18T11:33:09.172Z,1013.58
2018-06-18T11:34:09.161Z,1013.75
2018-06-18T11:35:09.147Z,1013.59
2018-06-18T11:36:09.137Z,1013.59
2018-06-18T11:37:09.128Z,1013.57
2018-06-18T11:38:09.121Z,1013.62
2018-06-18T11:39:09.109Z,1013.71
2018-06-18T11:40:09.098Z,1013.59
2018-06-18T11:41:09.086Z,1013.63
2018-06-18T11:42:09.097Z,1013.53
2018-06-18T11:43:09.069Z,1013.56
2018-06-18T11:44:09.059Z,1013.63
2018-06-18T11:45:09.051Z,1013.65
2018-06-18T11:46:09.035Z,1013.62
2018-06-18T11:47:09.022Z,1013.57
2018-06-18T11:48:09.020Z,1013.53
2018-06-18T11:49:09.008Z,1013.54
2018-06-18T11:50:09.004Z,1013.47
2018-06-18T11:51:09.015Z,1013.52
2018-06-18T11:52:08.979Z,1013.55
2018-06-18T11:53:08.965Z,1013.52
2018-06-18T11:54:08.952Z,1013.56
2018-06-18T11:55:08.940Z,1013.55
2018-06-18T11:56:08.939Z,1013.56
2018-06-18T11:57:08.920Z,1013.56
2018-06-18T11:58:08.921Z,1013.63
2018-06-18T11:59:08.906Z,1013.61
2018-06-18T12:00:08.887Z,1013.62
2018-06-18T12:01:08.881Z,1013.65
2018-06-18T12:02:08.868Z,1013.59
2018-06-18T12:03:08.855Z,1013.61
2018-06-18T12:04:08.849Z,1013.60
2018-06-18T12:05:08.843Z,1013.61